Time;durP1;ratioP1;P1;durP2;ratioP2;P2;SDS_P1;SDS_P2;PMS_P1;PMS_P2;Temp;Humidity;BMP_temperature;BMP_pressure;BME280_temperature;BME280_humidity;BME280_pressure;Samples;Min_cycle;Max_cycle;Signal;HPM_P1;HPM_P2
2023/07/29 00:01:40;;;;;;;81.70;56.65;;;27.10;99.90;;;;;;5135196;27;20047;-64
2023/07/29 00:04:09;;;;;;;83.93;62.38;;;27.10;99.90;;;;;;5118915;27;20031;-64
2023/07/29 00:06:36;;;;;;;114.25;82.70;;;27.10;99.90;;;;;;5114829;28;20428;-69
2023/07/29 00:09:03;;;;;;;91.68;64.20;;;27.30;99.90;;;;;;5114732;28;20028;-68
2023/07/29 00:11:30;;;;;;;92.15;63.78;;;27.20;99.90;;;;;;5114490;28;20099;-64
2023/07/29 00:13:56;;;;;;;66.75;50.90;;;27.20;99.90;;;;;;5114601;28;20024;-64
2023/07/29 00:16:23;;;;;;;74.00;50.83;;;27.20;99.90;;;;;;5124119;27;20015;-65
2023/07/29 00:18:50;;;;;;;76.93;55.85;;;27.20;99.90;;;;;;5115012;28;20026;-64
2023/07/29 00:21:16;;;;;;;68.63;50.97;;;27.20;99.90;;;;;;5114596;28;20028;-65
2023/07/29 00:23:43;;;;;;;84.78;56.05;;;27.10;99.90;;;;;;5114473;28;20032;-65
2023/07/29 00:26:09;;;;;;;87.72;59.50;;;27.20;99.90;;;;;;5114774;28;20064;-63
2023/07/29 00:28:36;;;;;;;97.85;70.32;;;27.20;99.90;;;;;;5113986;28;20020;-64
2023/07/29 00:31:03;;;;;;;128.20;93.85;;;27.20;99.90;;;;;;5114005;28;20026;-63
2023/07/29 00:33:29;;;;;;;201.38;137.70;;;27.30;99.90;;;;;;5114031;28;20024;-63
2023/07/29 00:35:56;;;;;;;153.65;112.00;;;27.30;99.90;;;;;;5114151;28;20019;-64
2023/07/29 00:38:23;;;;;;;104.22;71.55;;;27.20;99.90;;;;;;5114099;28;20020;-64
2023/07/29 00:40:50;;;;;;;92.80;61.78;;;27.20;99.90;;;;;;5113883;28;20035;-62
2023/07/29 00:43:16;;;;;;;85.28;57.47;;;27.40;99.90;;;;;;5114074;28;20530;-62
2023/07/29 00:45:44;;;;;;;79.03;53.75;;;27.30;99.90;;;;;;5114052;28;20076;-62
2023/07/29 00:48:11;;;;;;;79.43;54.85;;;27.30;99.90;;;;;;5126787;27;20545;-62
2023/07/29 00:50:38;;;;;;;76.00;51.65;;;27.30;99.90;;;;;;5115744;27;20058;-63
2023/07/29 00:53:04;;;;;;;74.80;50.60;;;27.40;99.90;;;;;;5114154;28;20066;-63
2023/07/29 00:55:31;;;;;;;83.10;57.15;;;27.40;99.90;;;;;;5113868;28;20481;-62
2023/07/29 00:57:58;;;;;;;85.22;61.45;;;27.40;99.90;;;;;;5114000;28;20035;-62
2023/07/29 01:00:25;;;;;;;93.55;66.20;;;27.40;99.90;;;;;;5113556;28;20559;-63
2023/07/29 01:02:54;;;;;;;96.63;66.40;;;27.50;99.90;;;;;;5113849;28;20035;-63
2023/07/29 01:05:22;;;;;;;73.25;51.90;;;27.40;99.90;;;;;;5114035;28;20066;-63
2023/07/29 01:07:58;;;;;;;77.55;49.70;;;27.50;99.90;;;;;;5113632;28;20032;-64
2023/07/29 01:11:09;;;;;;;72.93;49.85;;;27.40;99.90;;;;;;5113414;28;20038;-63
2023/07/29 01:13:50;;;;;;;69.22;48.30;;;27.40;99.90;;;;;;5115273;28;20019;-62
2023/07/29 01:16:45;;;;;;;64.45;47.35;;;27.40;99.90;;;;;;5122650;28;20035;-62
2023/07/29 01:19:40;;;;;;;70.43;45.67;;;27.60;99.90;;;;;;5112066;28;20032;-62
2023/07/29 01:22:08;;;;;;;66.38;45.67;;;27.50;99.90;;;;;;5105730;28;20036;-62
2023/07/29 01:24:35;;;;;;;61.85;45.78;;;27.50;99.90;;;;;;5125158;28;20098;-63
2023/07/29 01:27:03;;;;;;;64.88;46.90;;;27.50;99.90;;;;;;5113944;28;20073;-62
2023/07/29 01:29:30;;;;;;;62.15;44.53;;;27.60;99.90;;;;;;5114764;28;20020;-62
2023/07/29 01:32:04;;;;;;;64.07;47.55;;;27.50;99.90;;;;;;5121604;28;20465;-63
2023/07/29 01:34:38;;;;;;;67.70;46.85;;;27.60;99.90;;;;;;5120726;28;20016;-65
2023/07/29 01:37:08;;;;;;;68.78;47.05;;;27.60;99.90;;;;;;5128477;28;20019;-65
2023/07/29 01:39:37;;;;;;;66.28;45.35;;;27.70;99.90;;;;;;5123093;27;20011;-65
2023/07/29 01:42:03;;;;;;;58.45;42.20;;;27.60;99.90;;;;;;5128939;27;20038;-65
2023/07/29 01:44:30;;;;;;;67.50;42.05;;;27.60;99.90;;;;;;5117807;27;20478;-65
2023/07/29 01:46:57;;;;;;;56.25;40.90;;;27.80;99.90;;;;;;5121277;27;20054;-63
2023/07/29 01:49:24;;;;;;;61.08;43.28;;;27.70;99.90;;;;;;5131318;27;20042;-64
2023/07/29 01:51:50;;;;;;;67.03;41.58;;;27.80;99.90;;;;;;5138166;27;20027;-64
2023/07/29 01:54:17;;;;;;;60.58;41.15;;;27.70;99.90;;;;;;5125630;27;20019;-63
2023/07/29 01:56:43;;;;;;;57.83;40.10;;;27.70;99.90;;;;;;5121981;27;20030;-64
2023/07/29 01:59:10;;;;;;;64.88;39.13;;;27.80;99.90;;;;;;5117290;28;20077;-64
2023/07/29 02:01:36;;;;;;;52.70;38.33;;;28.00;99.90;;;;;;5117155;28;20049;-62
2023/07/29 02:04:03;;;;;;;53.20;37.15;;;28.00;99.90;;;;;;5116888;28;20023;-63
2023/07/29 02:06:29;;;;;;;50.33;37.03;;;28.10;99.90;;;;;;5117031;28;20027;-64
2023/07/29 02:08:56;;;;;;;60.80;38.35;;;28.20;99.90;;;;;;5116665;28;20024;-63
2023/07/29 02:11:27;;;;;;;51.60;33.67;;;28.20;99.90;;;;;;5124190;27;20080;-64
2023/07/29 02:13:55;;;;;;;48.13;33.50;;;28.30;99.90;;;;;;5132728;27;20037;-64
2023/07/29 02:16:25;;;;;;;46.33;30.60;;;28.40;99.90;;;;;;5118609;27;20384;-64
2023/07/29 02:18:51;;;;;;;49.28;31.75;;;28.40;99.90;;;;;;5138576;27;20023;-63
2023/07/29 02:21:18;;;;;;;50.78;32.05;;;28.50;99.90;;;;;;5131745;27;20049;-63
2023/07/29 02:23:45;;;;;;;50.35;32.35;;;28.60;99.90;;;;;;5130630;27;20505;-64
2023/07/29 02:26:12;;;;;;;42.67;27.92;;;28.80;99.90;;;;;;5125582;27;20039;-64
2023/07/29 02:28:38;;;;;;;43.65;26.88;;;28.80;99.90;;;;;;5121372;27;20106;-64
2023/07/29 02:31:17;;;;;;;40.20;26.27;;;28.90;99.90;;;;;;5123706;27;20469;-64
2023/07/29 02:33:44;;;;;;;48.88;28.00;;;29.00;99.90;;;;;;5118111;28;20512;-63
2023/07/29 02:36:12;;;;;;;41.80;27.48;;;29.10;99.90;;;;;;5116751;28;20073;-64
2023/07/29 02:38:39;;;;;;;36.40;23.58;;;29.10;99.90;;;;;;5116416;28;20022;-64
2023/07/29 02:41:06;;;;;;;43.53;25.88;;;29.20;99.90;;;;;;5116507;28;20031;-62
2023/07/29 02:43:33;;;;;;;36.47;24.40;;;29.30;99.90;;;;;;5117674;28;20045;-64
2023/07/29 02:45:59;;;;;;;35.60;21.80;;;29.40;99.90;;;;;;5116708;28;20119;-64
2023/07/29 02:48:26;;;;;;;37.47;22.55;;;29.40;99.90;;;;;;5116129;28;20027;-63
2023/07/29 02:50:52;;;;;;;37.22;22.20;;;29.40;99.90;;;;;;5115374;28;20107;-63
2023/07/29 02:53:19;;;;;;;29.02;21.20;;;29.40;99.90;;;;;;5116595;28;20016;-64
2023/07/29 02:55:46;;;;;;;30.02;19.27;;;29.40;99.90;;;;;;5117051;28;20046;-64
2023/07/29 02:58:12;;;;;;;27.60;18.83;;;29.40;99.90;;;;;;5115859;28;20019;-63
2023/07/29 03:00:41;;;;;;;26.42;17.80;;;29.50;99.90;;;;;;5128747;27;20578;-63
2023/07/29 03:03:08;;;;;;;32.05;17.58;;;29.50;99.90;;;;;;5136728;27;20489;-65
2023/07/29 03:05:35;;;;;;;31.45;19.13;;;29.50;99.90;;;;;;5136650;27;20023;-64
2023/07/29 03:08:02;;;;;;;26.38;17.17;;;29.60;99.90;;;;;;5136549;27;20102;-64
2023/07/29 03:10:28;;;;;;;29.25;18.40;;;29.70;99.90;;;;;;5135389;27;20541;-64
2023/07/29 03:12:55;;;;;;;24.30;17.20;;;29.80;99.90;;;;;;5127250;27;20170;-63
2023/07/29 03:15:26;;;;;;;28.48;16.13;;;29.80;99.90;;;;;;5115853;28;20108;-64
2023/07/29 03:17:53;;;;;;;28.67;16.10;;;30.00;99.90;;;;;;5116647;28;20043;-70
2023/07/29 03:20:20;;;;;;;24.98;16.20;;;30.10;99.90;;;;;;5116123;28;20493;-69
2023/07/29 03:22:47;;;;;;;25.30;15.45;;;30.00;99.90;;;;;;5122517;27;20035;-68
2023/07/29 03:25:14;;;;;;;26.45;16.48;;;29.90;99.90;;;;;;5117496;27;20028;-64
2023/07/29 03:27:40;;;;;;;28.55;17.35;;;30.00;99.90;;;;;;5115942;27;20377;-64
2023/07/29 03:30:07;;;;;;;26.95;16.15;;;30.10;99.90;;;;;;5124525;27;20106;-65
2023/07/29 03:32:34;;;;;;;26.35;15.98;;;30.00;99.90;;;;;;5121323;27;20019;-63
2023/07/29 03:35:00;;;;;;;26.65;15.90;;;30.10;99.90;;;;;;5119939;27;20020;-63
2023/07/29 03:37:27;;;;;;;28.10;15.88;;;30.10;99.90;;;;;;5121021;27;20020;-64
2023/07/29 03:39:54;;;;;;;26.08;15.23;;;30.10;99.90;;;;;;5124855;27;20076;-66
2023/07/29 03:42:20;;;;;;;27.02;15.95;;;30.20;99.90;;;;;;5120623;27;20083;-67
2023/07/29 03:44:46;;;;;;;22.95;14.00;;;30.20;99.90;;;;;;5123534;27;20031;-63
2023/07/29 03:47:13;;;;;;;23.48;15.45;;;30.30;99.90;;;;;;5127374;27;20023;-64
2023/07/29 03:49:40;;;;;;;30.52;15.30;;;30.40;99.90;;;;;;5125691;27;20075;-64
2023/07/29 03:52:06;;;;;;;27.33;15.32;;;30.50;99.90;;;;;;5123532;27;20035;-64
2023/07/29 03:54:33;;;;;;;21.92;13.90;;;30.40;99.90;;;;;;5125281;27;20031;-65
2023/07/29 03:56:59;;;;;;;24.55;13.75;;;30.50;99.90;;;;;;5126323;27;20041;-64
2023/07/29 03:59:26;;;;;;;21.40;15.23;;;30.50;99.90;;;;;;5122965;27;20024;-63
2023/07/29 04:01:53;;;;;;;24.88;15.02;;;30.60;99.90;;;;;;5118120;27;20032;-63
2023/07/29 04:04:20;;;;;;;24.58;14.25;;;30.60;99.90;;;;;;5120587;27;20469;-64
2023/07/29 04:06:47;;;;;;;24.08;15.27;;;30.60;99.90;;;;;;5120488;27;20031;-63
2023/07/29 04:09:13;;;;;;;28.90;14.63;;;30.70;99.90;;;;;;5109331;27;20019;-64
2023/07/29 04:11:40;;;;;;;19.38;13.07;;;30.70;99.90;;;;;;5130526;27;20465;-63
2023/07/29 04:14:06;;;;;;;25.48;13.40;;;30.70;99.90;;;;;;5126795;27;20073;-63
2023/07/29 04:16:33;;;;;;;22.83;13.85;;;30.70;99.90;;;;;;5121181;27;20099;-63
2023/07/29 04:18:59;;;;;;;23.85;13.48;;;30.80;99.90;;;;;;5126430;27;20028;-63
2023/07/29 04:21:26;;;;;;;45.33;23.42;;;30.80;99.90;;;;;;5122953;27;20517;-63
2023/07/29 04:23:53;;;;;;;36.65;20.70;;;30.90;99.90;;;;;;5123642;27;20038;-65
2023/07/29 04:26:19;;;;;;;28.88;19.70;;;31.00;99.90;;;;;;5121778;27;20497;-64
2023/07/29 04:28:46;;;;;;;24.50;15.27;;;31.00;99.90;;;;;;5125759;27;20119;-62
2023/07/29 04:31:12;;;;;;;24.40;15.30;;;30.90;99.90;;;;;;5124178;27;20076;-63
2023/07/29 04:33:39;;;;;;;31.50;17.13;;;30.90;99.90;;;;;;5124768;27;20019;-61
2023/07/29 04:36:05;;;;;;;27.10;16.73;;;30.90;99.90;;;;;;5124741;27;20380;-62
2023/07/29 04:38:33;;;;;;;27.10;15.57;;;30.80;99.90;;;;;;5123835;27;20469;-63
2023/07/29 04:41:06;;;;;;;23.65;15.70;;;30.70;99.90;;;;;;5124886;27;20034;-62
2023/07/29 04:43:33;;;;;;;24.33;13.60;;;30.70;99.90;;;;;;5122904;27;20019;-62
2023/07/29 04:46:00;;;;;;;25.35;13.75;;;30.70;99.90;;;;;;5123389;27;20023;-63
2023/07/29 04:48:26;;;;;;;23.38;13.20;;;30.70;99.90;;;;;;5121985;27;20035;-67
2023/07/29 04:50:53;;;;;;;28.23;13.80;;;30.80;99.90;;;;;;5121194;27;20134;-64
2023/07/29 04:53:19;;;;;;;23.67;14.35;;;30.90;99.90;;;;;;5124626;27;20086;-64
2023/07/29 04:55:46;;;;;;;23.10;13.35;;;30.90;99.90;;;;;;5122347;27;20111;-63
2023/07/29 04:58:13;;;;;;;21.35;12.85;;;30.90;99.90;;;;;;5123340;27;20015;-64
2023/07/29 05:00:39;;;;;;;23.90;16.02;;;31.00;99.90;;;;;;5119906;27;20121;-64
2023/07/29 05:03:06;;;;;;;27.85;17.33;;;30.90;99.90;;;;;;5119518;28;20027;-65
2023/07/29 05:05:33;;;;;;;24.88;15.25;;;31.00;99.90;;;;;;5123357;27;20023;-64
2023/07/29 05:07:59;;;;;;;25.02;14.20;;;31.00;99.90;;;;;;5123654;27;20390;-64
2023/07/29 05:10:26;;;;;;;21.08;13.48;;;31.10;99.90;;;;;;5123201;27;20110;-64
2023/07/29 05:12:52;;;;;;;23.52;14.23;;;31.20;99.90;;;;;;5120672;28;20112;-63
2023/07/29 05:15:19;;;;;;;25.42;14.38;;;31.20;99.90;;;;;;5124809;27;20019;-64
2023/07/29 05:17:45;;;;;;;22.73;14.82;;;31.20;99.90;;;;;;5122728;28;20474;-65
2023/07/29 05:20:12;;;;;;;24.60;14.25;;;31.30;99.90;;;;;;5121971;28;20032;-64
2023/07/29 05:22:39;;;;;;;29.23;16.45;;;31.30;99.90;;;;;;5121241;28;20466;-64
2023/07/29 05:25:06;;;;;;;31.30;15.85;;;31.30;99.90;;;;;;5121758;28;20073;-65
2023/07/29 05:27:32;;;;;;;24.65;16.33;;;31.40;99.90;;;;;;5124573;28;20019;-66
2023/07/29 05:29:59;;;;;;;28.02;16.33;;;31.50;99.90;;;;;;5121731;28;20474;-65
2023/07/29 05:32:25;;;;;;;26.92;15.43;;;31.50;99.90;;;;;;5122211;28;20027;-63
2023/07/29 05:34:52;;;;;;;19.42;13.65;;;31.60;99.90;;;;;;5121429;28;20050;-64
2023/07/29 05:37:18;;;;;;;25.45;14.45;;;31.60;99.90;;;;;;5121327;28;20089;-63
2023/07/29 05:39:45;;;;;;;25.83;15.43;;;31.60;99.90;;;;;;5126412;28;20019;-65
2023/07/29 05:42:11;;;;;;;25.33;15.57;;;31.60;99.90;;;;;;5118663;28;20019;-67
2023/07/29 05:44:38;;;;;;;23.48;15.68;;;31.70;99.90;;;;;;5123171;28;20524;-66
2023/07/29 05:47:05;;;;;;;21.00;14.57;;;31.70;99.90;;;;;;5119691;28;20095;-64
2023/07/29 05:49:31;;;;;;;20.60;14.77;;;31.70;99.90;;;;;;5121803;28;20663;-64
2023/07/29 05:51:58;;;;;;;28.77;15.77;;;31.80;99.90;;;;;;5119501;28;20043;-64
2023/07/29 05:54:25;;;;;;;25.65;16.50;;;31.80;99.90;;;;;;5120860;28;20012;-62
2023/07/29 05:56:52;;;;;;;27.58;18.48;;;31.70;99.90;;;;;;5123544;28;20031;-63
2023/07/29 05:59:18;;;;;;;44.33;25.83;;;31.70;99.90;;;;;;5124809;28;20020;-64
2023/07/29 06:01:45;;;;;;;28.52;19.15;;;31.70;99.90;;;;;;5122314;28;20547;-64
2023/07/29 06:04:11;;;;;;;28.40;16.90;;;31.70;99.90;;;;;;5124552;28;20032;-64
2023/07/29 06:06:38;;;;;;;21.48;15.45;;;31.80;99.90;;;;;;5120550;28;20015;-63
2023/07/29 06:09:04;;;;;;;25.08;16.60;;;31.90;99.90;;;;;;5131330;28;20072;-63
2023/07/29 06:11:31;;;;;;;28.08;17.73;;;32.00;99.90;;;;;;5126850;28;20476;-61
2023/07/29 06:13:57;;;;;;;31.45;18.83;;;32.10;99.90;;;;;;5122336;28;20500;-63
2023/07/29 06:16:24;;;;;;;34.63;21.00;;;32.10;99.90;;;;;;5116514;28;20027;-62
2023/07/29 06:18:52;;;;;;;26.20;19.88;;;32.10;99.90;;;;;;5118343;28;20517;-63
2023/07/29 06:21:19;;;;;;;33.38;19.40;;;32.10;99.90;;;;;;5116053;28;20059;-63
2023/07/29 06:23:46;;;;;;;28.45;17.65;;;32.10;99.90;;;;;;5122044;28;20030;-63
2023/07/29 06:26:13;;;;;;;25.15;17.80;;;32.10;99.90;;;;;;5118985;27;20036;-62
2023/07/29 06:28:39;;;;;;;24.90;16.50;;;32.10;99.90;;;;;;5125094;27;20102;-63
2023/07/29 06:31:06;;;;;;;28.48;18.90;;;32.10;99.90;;;;;;5118519;27;20034;-63
2023/07/29 06:33:33;;;;;;;32.55;20.10;;;32.20;99.90;;;;;;5115747;27;20442;-63
2023/07/29 06:35:59;;;;;;;32.05;20.02;;;32.20;99.90;;;;;;5120975;27;20035;-63
2023/07/29 06:38:26;;;;;;;33.13;20.88;;;32.10;99.90;;;;;;5124971;27;20015;-62
2023/07/29 06:40:52;;;;;;;29.52;18.35;;;32.10;99.90;;;;;;5120387;27;20031;-64
2023/07/29 06:43:19;;;;;;;29.17;18.23;;;32.10;99.90;;;;;;5126120;27;20065;-63
2023/07/29 06:45:45;;;;;;;25.60;17.13;;;32.00;99.90;;;;;;5119261;27;20024;-63
2023/07/29 06:48:12;;;;;;;23.75;14.50;;;31.90;99.90;;;;;;5128145;27;20019;-64
2023/07/29 06:50:38;;;;;;;21.48;14.32;;;31.80;99.90;;;;;;5135030;27;20023;-64
2023/07/29 06:53:05;;;;;;;23.48;14.27;;;31.70;99.90;;;;;;5127335;27;20015;-63
2023/07/29 06:55:31;;;;;;;25.33;15.05;;;31.70;99.90;;;;;;5115661;28;20073;-64
2023/07/29 06:57:58;;;;;;;23.13;14.65;;;31.70;99.90;;;;;;5120405;27;20023;-64
2023/07/29 07:00:24;;;;;;;24.08;14.50;;;31.70;99.90;;;;;;5118774;27;20075;-63
2023/07/29 07:02:51;;;;;;;22.73;13.32;;;31.60;99.90;;;;;;5127690;27;20032;-63
2023/07/29 07:05:17;;;;;;;30.55;17.95;;;31.50;99.90;;;;;;5118861;27;20480;-64
2023/07/29 07:07:44;;;;;;;29.58;17.10;;;31.50;99.90;;;;;;5123261;27;20030;-62
2023/07/29 07:10:10;;;;;;;31.38;18.17;;;31.50;99.90;;;;;;5136617;27;20027;-68
2023/07/29 07:12:37;;;;;;;28.92;19.02;;;31.50;99.90;;;;;;5136092;27;20023;-64
2023/07/29 07:15:04;;;;;;;24.98;15.23;;;31.60;99.90;;;;;;5136375;27;20023;-63
2023/07/29 07:17:30;;;;;;;22.50;14.23;;;31.70;99.90;;;;;;5129327;27;20026;-63
2023/07/29 07:19:57;;;;;;;25.30;14.88;;;31.70;99.90;;;;;;5120433;27;20028;-63
2023/07/29 07:22:23;;;;;;;24.08;13.90;;;31.60;99.90;;;;;;5119202;27;20023;-70
2023/07/29 07:24:50;;;;;;;22.48;13.80;;;31.60;99.90;;;;;;5131146;27;20157;-63
2023/07/29 07:27:17;;;;;;;21.40;12.57;;;31.70;99.90;;;;;;5122684;27;20032;-65
2023/07/29 07:29:43;;;;;;;27.20;13.65;;;31.70;99.90;;;;;;5121363;27;20020;-66
2023/07/29 07:32:10;;;;;;;29.38;14.48;;;31.70;99.90;;;;;;5116282;27;20043;-65
2023/07/29 07:34:36;;;;;;;31.83;15.15;;;31.70;99.90;;;;;;5121006;27;20474;-63
2023/07/29 07:37:04;;;;;;;33.03;16.38;;;31.70;99.90;;;;;;5115467;27;20479;-65
2023/07/29 07:39:31;;;;;;;25.58;15.30;;;31.70;99.90;;;;;;5115368;28;20055;-65
2023/07/29 07:41:58;;;;;;;28.10;15.75;;;31.70;99.90;;;;;;5114829;28;20044;-63
2023/07/29 07:44:26;;;;;;;25.10;14.95;;;31.70;99.90;;;;;;5115124;28;20023;-63
2023/07/29 07:46:56;;;;;;;30.92;16.05;;;31.70;99.90;;;;;;5115035;28;20031;-62
2023/07/29 07:49:22;;;;;;;29.10;14.90;;;31.70;99.90;;;;;;5115162;28;20388;-62
2023/07/29 07:51:49;;;;;;;23.60;15.30;;;31.70;99.90;;;;;;5114982;28;20115;-63
2023/07/29 07:54:16;;;;;;;23.20;15.23;;;31.70;99.90;;;;;;5114988;28;20047;-62
2023/07/29 07:56:43;;;;;;;24.15;14.57;;;31.70;99.90;;;;;;5115169;28;20064;-63
2023/07/29 07:59:10;;;;;;;24.98;14.77;;;31.70;99.90;;;;;;5115698;28;20384;-63
2023/07/29 08:01:38;;;;;;;23.25;14.43;;;31.70;99.90;;;;;;5115182;28;20047;-63
2023/07/29 08:04:04;;;;;;;20.60;14.48;;;31.70;99.90;;;;;;5115155;28;20102;-63
2023/07/29 08:06:32;;;;;;;27.17;15.98;;;31.80;99.90;;;;;;5115469;28;20027;-63
2023/07/29 08:08:59;;;;;;;31.48;17.80;;;31.90;99.90;;;;;;5119041;27;20135;-63
2023/07/29 08:11:26;;;;;;;27.73;13.43;;;32.00;99.90;;;;;;5117809;27;20359;-62
2023/07/29 08:13:52;;;;;;;21.40;13.02;;;32.10;99.90;;;;;;5115027;28;20381;-63
2023/07/29 08:16:19;;;;;;;21.10;12.43;;;32.10;99.90;;;;;;5115372;28;20378;-62
2023/07/29 08:18:47;;;;;;;23.45;13.80;;;32.10;99.90;;;;;;5114877;28;20054;-63
2023/07/29 08:21:13;;;;;;;37.65;15.73;;;32.10;99.90;;;;;;5114778;28;20028;-63
2023/07/29 08:23:40;;;;;;;22.27;12.70;;;32.10;99.90;;;;;;5114526;28;20431;-63
2023/07/29 08:26:06;;;;;;;20.90;14.43;;;32.00;99.90;;;;;;5114526;28;20389;-63
2023/07/29 08:28:35;;;;;;;29.58;17.98;;;32.10;99.90;;;;;;5114633;28;20034;-63
2023/07/29 08:31:02;;;;;;;30.25;18.38;;;32.00;99.90;;;;;;5114246;28;20110;-63
2023/07/29 08:33:29;;;;;;;29.17;17.58;;;32.10;99.90;;;;;;5114247;28;20019;-63
2023/07/29 08:35:56;;;;;;;28.55;16.88;;;32.10;99.90;;;;;;5114315;28;20015;-63
2023/07/29 08:38:22;;;;;;;22.33;13.75;;;32.10;99.90;;;;;;5114401;28;20050;-63
2023/07/29 08:41:09;;;;;;;32.17;18.00;;;32.20;99.90;;;;;;5114210;28;20386;-63
2023/07/29 08:43:38;;;;;;;29.02;17.55;;;32.20;99.90;;;;;;5114624;28;20099;-63
2023/07/29 08:46:06;;;;;;;27.98;16.67;;;32.20;99.90;;;;;;5114028;28;20019;-62
2023/07/29 08:48:43;;;;;;;33.28;17.10;;;32.10;99.90;;;;;;5113100;28;20107;-63
2023/07/29 08:51:11;;;;;;;29.20;15.40;;;32.10;99.90;;;;;;5114017;28;20572;-63
2023/07/29 08:53:39;;;;;;;28.77;14.70;;;32.10;99.90;;;;;;5113996;28;20066;-63
2023/07/29 08:56:08;;;;;;;28.65;16.15;;;32.10;99.90;;;;;;5114302;28;20012;-63
2023/07/29 08:58:36;;;;;;;23.83;14.02;;;32.10;99.90;;;;;;5113779;28;20020;-63
2023/07/29 09:01:03;;;;;;;21.05;14.07;;;32.10;99.90;;;;;;5114019;28;20078;-63
2023/07/29 09:03:29;;;;;;;23.55;13.88;;;32.10;99.90;;;;;;5113948;28;20030;-63
2023/07/29 09:05:58;;;;;;;26.85;18.25;;;32.10;99.90;;;;;;5113897;28;20077;-63
2023/07/29 09:08:27;;;;;;;24.98;15.10;;;32.20;99.90;;;;;;5114383;28;20027;-63
2023/07/29 09:10:58;;;;;;;20.95;14.43;;;32.20;99.90;;;;;;5113749;28;20032;-63
2023/07/29 09:13:25;;;;;;;22.55;15.35;;;32.20;99.90;;;;;;5113735;28;20024;-61
2023/07/29 09:15:56;;;;;;;26.67;15.90;;;32.10;99.90;;;;;;5113896;28;20098;-62
2023/07/29 10:42:09;;;;;;;49.67;28.23;;;30.80;99.90;;;;;;5091043;28;20447;-63
2023/07/29 10:44:51;;;;;;;44.58;25.75;;;30.80;99.90;;;;;;5090633;28;20052;-63
2023/07/29 10:47:32;;;;;;;49.20;27.80;;;30.80;99.90;;;;;;5090247;28;20028;-63
2023/07/29 10:49:59;;;;;;;39.85;23.83;;;30.90;99.90;;;;;;5089368;28;20029;-63
2023/07/29 10:52:44;;;;;;;38.58;23.70;;;31.00;99.90;;;;;;5090236;28;20099;-64
2023/07/29 10:55:38;;;;;;;36.28;20.52;;;31.00;99.90;;;;;;5090577;28;20058;-64
2023/07/29 10:58:13;;;;;;;32.10;19.88;;;31.00;99.90;;;;;;5090328;28;20481;-64
2023/07/29 11:00:43;;;;;;;35.35;20.60;;;31.00;99.90;;;;;;5090131;28;20362;-64
2023/07/29 11:03:10;;;;;;;32.65;19.17;;;31.00;99.90;;;;;;5090541;28;20024;-62
2023/07/29 11:06:04;;;;;;;36.20;20.05;;;31.00;99.90;;;;;;5090367;28;20133;-63
2023/07/29 11:08:31;;;;;;;39.92;20.77;;;31.00;99.90;;;;;;5090067;28;20040;-63
2023/07/29 11:11:01;;;;;;;35.13;22.58;;;31.00;99.90;;;;;;5090415;28;20028;-63
2023/07/29 11:13:29;;;;;;;43.22;23.08;;;31.00;99.90;;;;;;5090174;28;20024;-63
2023/07/29 11:15:58;;;;;;;39.58;22.88;;;31.00;99.90;;;;;;5090246;28;20115;-63
2023/07/29 11:18:29;;;;;;;39.30;21.05;;;30.90;99.90;;;;;;5090093;28;20029;-64
2023/07/29 11:20:57;;;;;;;31.65;19.83;;;30.80;99.90;;;;;;5089972;28;20081;-64
2023/07/29 11:23:35;;;;;;;30.67;18.67;;;30.80;99.90;;;;;;5090107;28;20027;-62
2023/07/29 11:26:02;;;;;;;33.10;18.27;;;30.70;99.90;;;;;;5089910;28;20035;-62
2023/07/29 11:28:29;;;;;;;35.83;19.08;;;30.70;99.90;;;;;;5090194;28;20042;-62
2023/07/29 11:30:56;;;;;;;35.15;19.40;;;30.70;99.90;;;;;;5089890;28;20071;-64
2023/07/29 11:33:26;;;;;;;32.65;18.98;;;30.70;99.90;;;;;;5089692;28;20047;-64
2023/07/29 11:35:53;;;;;;;31.65;17.50;;;30.60;99.90;;;;;;5089852;28;20031;-64
2023/07/29 11:38:21;;;;;;;29.40;19.13;;;30.60;99.90;;;;;;5089729;28;20032;-65
2023/07/29 11:41:03;;;;;;;34.70;18.13;;;30.50;99.90;;;;;;5089317;28;20095;-64
2023/07/29 11:43:29;;;;;;;32.15;16.88;;;30.50;99.90;;;;;;5089672;28;20036;-64
2023/07/29 11:45:56;;;;;;;35.85;18.52;;;30.50;99.90;;;;;;5089700;28;20017;-64
2023/07/29 11:48:31;;;;;;;35.13;17.80;;;30.40;99.90;;;;;;5089532;28;20082;-64
2023/07/29 11:50:58;;;;;;;32.08;18.80;;;30.40;99.90;;;;;;5089690;28;20028;-64
2023/07/29 11:53:32;;;;;;;34.28;17.45;;;30.40;99.90;;;;;;5076211;28;20032;-63
2023/07/29 11:55:59;;;;;;;31.17;17.35;;;30.40;99.90;;;;;;5075859;28;20021;-63
2023/07/29 11:58:27;;;;;;;32.83;17.80;;;30.30;99.90;;;;;;5075869;28;20032;-63
2023/07/29 12:00:53;;;;;;;34.88;18.23;;;30.30;99.90;;;;;;5076015;28;20017;-64
2023/07/29 12:03:20;;;;;;;40.13;19.38;;;30.30;99.90;;;;;;5076105;28;20034;-65
2023/07/29 12:05:47;;;;;;;35.92;19.75;;;30.30;99.90;;;;;;5075780;28;20032;-64
2023/07/29 12:08:14;;;;;;;34.75;18.85;;;30.30;99.90;;;;;;5059549;28;20029;-64
2023/07/29 12:10:41;;;;;;;37.08;18.83;;;30.30;99.90;;;;;;5055591;28;20036;-64
2023/07/29 12:13:09;;;;;;;35.45;18.00;;;30.20;99.90;;;;;;5055521;28;20501;-63
2023/07/29 12:15:38;;;;;;;29.83;16.60;;;30.20;99.90;;;;;;5055229;28;20074;-63
2023/07/29 12:18:05;;;;;;;36.63;15.20;;;30.20;99.90;;;;;;5055481;28;20029;-64
2023/07/29 12:20:32;;;;;;;23.80;14.27;;;30.20;99.90;;;;;;5055412;28;20113;-64
2023/07/29 12:23:05;;;;;;;29.55;14.40;;;30.20;99.90;;;;;;5054771;28;20385;-64
2023/07/29 12:25:32;;;;;;;25.92;14.85;;;30.10;99.90;;;;;;5054673;28;20381;-64
2023/07/29 12:28:06;;;;;;;31.98;14.55;;;30.10;99.90;;;;;;5055400;28;20437;-64
2023/07/29 12:30:33;;;;;;;29.60;16.08;;;30.10;99.90;;;;;;5055162;28;20082;-64
2023/07/29 12:32:59;;;;;;;28.88;14.07;;;30.10;99.90;;;;;;5055125;28;20052;-64
2023/07/29 12:35:35;;;;;;;28.08;14.02;;;30.10;99.90;;;;;;5054950;28;20079;-64
2023/07/29 12:38:02;;;;;;;29.10;14.75;;;30.00;99.90;;;;;;5054997;28;20036;-64
2023/07/29 12:40:28;;;;;;;27.02;15.27;;;30.00;99.90;;;;;;5054984;28;20041;-64
2023/07/29 12:42:55;;;;;;;25.85;14.38;;;29.90;99.90;;;;;;5054766;28;20516;-64
2023/07/29 12:45:28;;;;;;;20.38;13.55;;;29.90;99.90;;;;;;5055010;28;20462;-64
2023/07/29 12:47:55;;;;;;;27.88;14.85;;;29.90;99.90;;;;;;5054860;28;20429;-65
2023/07/29 12:50:22;;;;;;;30.50;15.65;;;29.90;99.90;;;;;;5055054;28;20048;-65
2023/07/29 12:52:48;;;;;;;29.65;16.48;;;29.90;99.90;;;;;;5054713;28;20112;-64
2023/07/29 12:55:15;;;;;;;29.33;15.57;;;29.80;99.90;;;;;;5054729;28;20074;-64
2023/07/29 12:57:43;;;;;;;33.88;16.60;;;29.80;99.90;;;;;;5054800;28;20474;-64
2023/07/29 13:00:10;;;;;;;30.90;16.08;;;29.80;99.90;;;;;;5054526;28;20065;-64
2023/07/29 13:02:37;;;;;;;33.70;17.17;;;29.80;99.90;;;;;;5054932;28;20167;-64
2023/07/29 13:05:04;;;;;;;32.08;17.13;;;29.80;99.90;;;;;;5053448;28;20481;-65
2023/07/29 13:07:30;;;;;;;32.92;16.95;;;29.70;99.90;;;;;;5054601;28;20025;-64
2023/07/29 13:09:57;;;;;;;33.55;18.88;;;29.70;99.90;;;;;;5054482;28;20021;-64
2023/07/29 13:12:24;;;;;;;36.90;18.27;;;29.70;99.90;;;;;;5054469;28;20040;-64
2023/07/29 13:14:50;;;;;;;31.15;18.38;;;29.70;99.90;;;;;;5054400;28;20029;-64
2023/07/29 13:17:17;;;;;;;26.77;17.20;;;29.70;99.90;;;;;;5054322;28;20470;-64
2023/07/29 13:19:43;;;;;;;34.35;19.17;;;29.60;99.90;;;;;;5054614;28;20058;-63
2023/07/29 13:22:09;;;;;;;33.13;18.77;;;29.60;99.90;;;;;;5054250;28;20049;-64
2023/07/29 13:24:36;;;;;;;36.40;19.65;;;29.60;99.90;;;;;;5054328;28;20029;-64
2023/07/29 13:27:03;;;;;;;35.05;19.95;;;29.60;99.90;;;;;;5053940;28;20434;-64
2023/07/29 13:29:29;;;;;;;39.03;19.50;;;29.60;99.90;;;;;;5054206;28;20048;-63
2023/07/29 13:31:56;;;;;;;34.92;19.65;;;29.50;99.90;;;;;;5054085;28;20500;-63
2023/07/29 13:34:22;;;;;;;35.72;19.08;;;29.50;99.90;;;;;;5053904;28;20136;-63
2023/07/29 13:36:49;;;;;;;35.05;19.58;;;29.50;99.90;;;;;;5054054;28;20025;-64
2023/07/29 13:39:16;;;;;;;28.40;18.80;;;29.50;99.90;;;;;;5053971;28;20029;-64
2023/07/29 13:41:42;;;;;;;29.67;18.70;;;29.40;99.90;;;;;;5053585;28;20045;-64
2023/07/29 13:44:09;;;;;;;30.25;18.42;;;29.40;99.90;;;;;;5053776;28;20538;-64
2023/07/29 13:46:35;;;;;;;33.95;19.50;;;29.40;99.90;;;;;;5053764;28;20078;-64
2023/07/29 13:49:03;;;;;;;40.97;21.08;;;29.30;99.90;;;;;;5053676;28;20017;-64
2023/07/29 13:51:29;;;;;;;37.25;20.90;;;29.30;99.90;;;;;;5053523;28;20036;-64
2023/07/29 13:53:56;;;;;;;37.13;20.23;;;29.30;99.90;;;;;;5053660;28;20099;-63